Terminal Aerodrome Forecast
Issued by NWS

Home | Current Version | Previous Version | Text Only | Print | Product List | Glossary On
Versions: 1 2 3 4 5 6 7 8 9 10 11 12 13 14 15 16 17 18 19 20 21
982
FTUS43 KGRR 021140
TAFLAN
TAF
KLAN 021140Z 0212/0312 02008KT P6SM VCSH OVC008
     FM021400 03008KT P6SM OVC015
     FM021600 04009KT P6SM OVC025
     FM021800 06008KT P6SM BKN035
     FM030000 00000KT P6SM SCT050=

USA.gov is the U.S. government's official web portal to all federal, state and local government web resources and services.